Time;durP1;ratioP1;P1;durP2;ratioP2;P2;SDS_P1;SDS_P2;PMS_P1;PMS_P2;Temp;Humidity;BMP_temperature;BMP_pressure;BME280_temperature;BME280_humidity;BME280_pressure;Samples;Min_cycle;Max_cycle;Signal;HPM_P1;HPM_P2
2023/09/04 00:00:55;;;;;;;8.13;3.13;;;;;;;17.74;62.01;101208.13;5083277;28;20209;-59
2023/09/04 00:03:26;;;;;;;4.28;3.10;;;;;;;17.74;62.18;101213.34;5091073;28;20739;-59
2023/09/04 00:05:54;;;;;;;4.82;3.00;;;;;;;17.68;62.16;101218.69;5089678;28;20201;-58
2023/09/04 00:08:22;;;;;;;8.52;3.28;;;;;;;17.62;62.52;101216.22;5099261;28;20280;-58
2023/09/04 00:10:51;;;;;;;4.43;2.70;;;;;;;17.58;62.50;101211.97;5089719;28;20662;-59
2023/09/04 00:13:21;;;;;;;4.18;2.70;;;;;;;17.53;62.77;101208.63;5092127;28;20254;-59
2023/09/04 00:15:49;;;;;;;5.65;2.67;;;;;;;17.50;63.00;101208.69;5078852;28;20257;-58
2023/09/04 00:18:17;;;;;;;5.22;2.78;;;;;;;17.44;63.34;101198.38;5098689;28;20693;-60
2023/09/04 00:20:45;;;;;;;5.47;3.15;;;;;;;17.45;63.44;101206.16;5095301;28;20711;-59
2023/09/04 00:23:12;;;;;;;3.53;2.88;;;;;;;17.47;63.41;101204.38;5095147;28;20213;-58
2023/09/04 00:25:40;;;;;;;5.30;3.00;;;;;;;17.46;63.46;101215.69;5093781;28;20231;-59
2023/09/04 00:28:08;;;;;;;4.00;2.90;;;;;;;17.43;63.57;101207.94;5091454;28;20204;-64
2023/09/04 00:30:38;;;;;;;5.47;2.85;;;;;;;17.38;63.61;101209.81;5091924;28;20228;-61
2023/09/04 00:33:05;;;;;;;5.28;2.72;;;;;;;17.36;64.10;101207.22;5080379;28;20213;-60
2023/09/04 00:35:33;;;;;;;4.65;3.17;;;;;;;17.34;64.10;101216.81;5090877;28;20200;-61
2023/09/04 00:38:01;;;;;;;4.50;3.10;;;;;;;17.36;64.30;101214.19;5091360;28;20254;-60
2023/09/04 00:40:29;;;;;;;3.17;2.80;;;;;;;17.38;64.11;101210.66;5095085;28;21031;-59
2023/09/04 00:42:57;;;;;;;4.18;2.92;;;;;;;17.38;64.08;101202.84;5087374;28;20695;-58
2023/09/04 00:45:25;;;;;;;4.85;3.15;;;;;;;17.39;63.90;101207.16;5081621;28;20213;-60
2023/09/04 00:47:55;;;;;;;6.60;3.33;;;;;;;17.39;64.23;101207.16;5089910;28;20199;-59
2023/09/04 00:50:24;;;;;;;5.10;2.80;;;;;;;17.38;64.38;101213.25;5084204;28;20213;-58
2023/09/04 00:52:56;;;;;;;5.30;2.90;;;;;;;17.38;64.58;101215.88;5086741;28;20291;-59
2023/09/04 00:55:24;;;;;;;3.20;2.70;;;;;;;17.36;64.74;101215.03;5093441;28;20313;-62
2023/09/04 00:57:53;;;;;;;4.97;2.85;;;;;;;17.34;65.07;101215.94;5092919;28;20196;-59
2023/09/04 01:00:25;;;;;;;3.45;2.92;;;;;;;17.30;65.04;101215.16;5092084;28;20200;-57
2023/09/04 01:02:53;;;;;;;5.13;3.25;;;;;;;17.26;64.96;101216.09;5087662;28;20672;-61
2023/09/04 01:05:22;;;;;;;3.15;2.50;;;;;;;17.24;65.51;101212.69;5093096;28;20578;-58
2023/09/04 01:07:50;;;;;;;2.92;2.60;;;;;;;17.25;65.66;101214.41;5092424;28;20201;-58
2023/09/04 01:10:18;;;;;;;3.78;2.80;;;;;;;17.23;65.66;101212.69;5091846;28;20249;-58
2023/09/04 01:12:53;;;;;;;4.00;2.75;;;;;;;17.20;65.92;101211.03;5089099;28;20219;-60
2023/09/04 01:15:21;;;;;;;3.95;3.17;;;;;;;17.19;66.17;101205.84;5086052;28;20677;-61
2023/09/04 01:17:50;;;;;;;3.33;2.80;;;;;;;17.16;66.34;101198.97;5079575;28;20200;-60
2023/09/04 01:20:23;;;;;;;6.85;3.15;;;;;;;17.14;66.39;101187.72;5086274;28;20247;-59
2023/09/04 01:22:51;;;;;;;5.55;2.53;;;;;;;17.15;66.42;101194.63;5081562;28;20648;-60
2023/09/04 01:25:19;;;;;;;6.63;2.53;;;;;;;17.13;66.73;101209.44;5087822;28;20208;-59
2023/09/04 01:27:56;;;;;;;3.22;2.90;;;;;;;17.12;66.96;101213.81;5083209;28;20201;-61
2023/09/04 01:30:33;;;;;;;4.20;2.70;;;;;;;17.10;66.98;101225.13;5076383;28;20204;-59
2023/09/04 01:33:10;;;;;;;3.70;2.80;;;;;;;17.08;67.19;101226.88;5085744;28;20296;-60
2023/09/04 01:35:40;;;;;;;4.13;2.95;;;;;;;17.03;67.17;101223.53;5083635;28;20290;-57
2023/09/04 01:38:08;;;;;;;6.18;3.40;;;;;;;16.97;67.50;101224.47;5088464;28;21064;-60
2023/09/04 01:40:36;;;;;;;4.13;3.15;;;;;;;16.96;67.68;101216.72;5086139;28;20209;-58
2023/09/04 01:43:04;;;;;;;6.10;2.83;;;;;;;16.95;67.82;101220.22;5081533;28;20590;-58
2023/09/04 01:45:32;;;;;;;4.38;2.80;;;;;;;16.94;67.84;101218.47;5088188;28;20222;-59
2023/09/04 01:48:00;;;;;;;4.65;2.72;;;;;;;16.94;67.96;101221.97;5090754;28;20200;-58
2023/09/04 01:50:28;;;;;;;3.10;2.50;;;;;;;16.94;67.96;101223.69;5084317;28;20205;-59
2023/09/04 01:52:57;;;;;;;4.45;2.78;;;;;;;16.94;68.23;101221.09;5081130;28;20563;-58
2023/09/04 01:55:25;;;;;;;4.82;2.85;;;;;;;16.92;68.03;101221.13;5090074;28;20223;-58
2023/09/04 01:57:53;;;;;;;3.78;2.65;;;;;;;16.92;68.42;101228.09;5085990;28;20214;-58
2023/09/04 02:00:21;;;;;;;3.60;2.80;;;;;;;16.93;68.62;101237.59;5085136;28;20283;-58
2023/09/04 02:02:49;;;;;;;3.90;2.78;;;;;;;16.93;68.36;101235.00;5077689;28;20219;-59
2023/09/04 02:05:17;;;;;;;5.55;3.08;;;;;;;16.89;68.70;101247.22;5082046;28;20263;-59
2023/09/04 02:07:45;;;;;;;4.15;2.80;;;;;;;16.84;68.89;101249.91;5086398;28;20559;-63
2023/09/04 02:10:15;;;;;;;4.35;2.83;;;;;;;16.81;68.96;101255.16;5089872;28;20196;-58
2023/09/04 02:12:43;;;;;;;3.20;2.88;;;;;;;16.75;69.15;101255.25;5088113;28;20208;-59
2023/09/04 02:15:11;;;;;;;4.63;2.95;;;;;;;16.76;69.35;101258.75;5095636;28;20231;-60
2023/09/04 02:17:39;;;;;;;3.08;2.70;;;;;;;16.71;69.44;101263.97;5087865;28;20604;-61
2023/09/04 02:20:08;;;;;;;5.15;2.97;;;;;;;16.62;69.59;101259.81;5082432;28;20215;-59
2023/09/04 02:22:36;;;;;;;4.40;2.80;;;;;;;16.51;69.93;101269.53;5084144;28;20229;-59
2023/09/04 02:25:05;;;;;;;5.20;3.10;;;;;;;16.45;70.16;101276.56;5088976;28;20220;-61
2023/09/04 02:27:34;;;;;;;3.80;2.50;;;;;;;16.38;70.62;101268.84;5083225;28;20541;-62
2023/09/04 02:30:03;;;;;;;5.07;2.70;;;;;;;16.37;70.73;101268.88;5089200;28;20201;-59
2023/09/04 02:32:30;;;;;;;3.50;3.13;;;;;;;16.30;70.83;101270.72;5094007;28;20208;-63
2023/09/04 02:34:58;;;;;;;4.82;3.35;;;;;;;16.32;70.86;101275.91;5085506;28;20220;-66
2023/09/04 02:37:27;;;;;;;4.35;3.47;;;;;;;16.30;71.04;101270.72;5087620;28;20215;-59
2023/09/04 02:39:55;;;;;;;5.93;3.45;;;;;;;16.25;70.94;101272.53;5089617;28;20215;-64
2023/09/04 02:42:23;;;;;;;5.20;3.53;;;;;;;16.22;71.02;101277.78;5083820;28;20262;-59
2023/09/04 02:44:52;;;;;;;7.97;4.00;;;;;;;16.17;71.20;101267.47;5086300;28;20208;-61
2023/09/04 02:47:20;;;;;;;4.20;3.75;;;;;;;16.17;71.41;101270.06;5090614;28;20584;-58
2023/09/04 02:49:48;;;;;;;8.60;3.95;;;;;;;16.13;71.59;101276.19;5099129;28;20204;-59
2023/09/04 02:52:16;;;;;;;6.30;3.85;;;;;;;16.13;71.63;101285.75;5090192;28;20194;-59
2023/09/04 02:54:45;;;;;;;4.97;4.03;;;;;;;16.14;71.14;101288.31;5084876;28;20197;-57
2023/09/04 02:57:13;;;;;;;6.05;3.78;;;;;;;16.14;71.56;101295.25;5087330;28;20200;-63
2023/09/04 02:59:41;;;;;;;4.60;3.38;;;;;;;16.11;71.25;101297.91;5088164;28;20739;-60
2023/09/04 03:02:10;;;;;;;6.28;3.70;;;;;;;16.08;71.57;101303.13;5086425;28;20206;-59
2023/09/04 03:04:38;;;;;;;6.68;3.88;;;;;;;16.06;71.76;101304.91;5095013;28;20261;-58
2023/09/04 03:07:06;;;;;;;6.68;4.07;;;;;;;16.05;72.04;101297.97;5089930;28;20201;-61
2023/09/04 03:09:34;;;;;;;5.75;3.88;;;;;;;16.00;71.99;101299.78;5090027;28;20205;-58
2023/09/04 03:12:02;;;;;;;6.78;3.88;;;;;;;15.98;72.39;101309.34;5091921;28;20235;-61
2023/09/04 03:14:30;;;;;;;8.15;4.25;;;;;;;15.97;72.68;101305.03;5091312;28;20240;-59
2023/09/04 03:16:58;;;;;;;5.88;3.95;;;;;;;15.96;72.67;101308.50;5087705;28;20208;-60
2023/09/04 03:19:28;;;;;;;9.30;4.40;;;;;;;15.92;72.94;101308.56;5087845;28;20655;-59
2023/09/04 03:21:57;;;;;;;4.85;3.50;;;;;;;15.93;72.79;101310.25;5089478;28;20554;-58
2023/09/04 03:24:26;;;;;;;6.32;4.28;;;;;;;15.95;73.00;101305.06;5093475;28;20970;-58
2023/09/04 03:26:54;;;;;;;5.15;3.90;;;;;;;16.02;73.26;101304.09;5084034;28;20236;-59
2023/09/04 03:29:22;;;;;;;6.70;3.92;;;;;;;16.07;72.96;101314.44;5095821;28;20682;-58
2023/09/04 03:31:50;;;;;;;5.88;3.53;;;;;;;16.09;72.75;101321.34;5084327;28;20211;-58
2023/09/04 03:34:20;;;;;;;7.50;3.92;;;;;;;16.07;72.86;101322.22;5089668;28;20293;-61
2023/09/04 03:36:49;;;;;;;6.13;3.80;;;;;;;16.06;73.22;101323.13;5090876;28;20291;-62
2023/09/04 03:39:17;;;;;;;4.88;3.53;;;;;;;16.09;73.17;101321.34;5087733;28;20208;-61
2023/09/04 03:41:45;;;;;;;7.05;4.10;;;;;;;16.08;73.24;101326.53;5096557;28;20668;-65
2023/09/04 03:44:14;;;;;;;6.53;3.90;;;;;;;16.07;73.37;101332.63;5090616;28;20289;-59
2023/09/04 03:46:42;;;;;;;5.53;4.00;;;;;;;16.10;73.68;101332.59;5085814;28;20334;-60
2023/09/04 03:49:11;;;;;;;3.97;3.13;;;;;;;16.12;73.48;101338.59;5092765;28;20254;-60
2023/09/04 03:51:40;;;;;;;6.88;4.07;;;;;;;16.14;73.29;101335.13;5081340;28;20213;-62
2023/09/04 03:54:09;;;;;;;5.85;3.75;;;;;;;16.13;73.27;101340.34;5090382;28;20219;-57
2023/09/04 03:56:37;;;;;;;5.38;3.58;;;;;;;16.12;73.54;101341.22;5086404;28;20567;-59
2023/09/04 03:59:05;;;;;;;5.35;3.15;;;;;;;16.13;73.61;101338.59;5088031;28;20200;-59
2023/09/04 04:01:33;;;;;;;5.10;3.45;;;;;;;16.17;73.24;101342.03;5087129;28;20220;-59
2023/09/04 04:04:01;;;;;;;5.28;3.45;;;;;;;16.19;73.31;101342.84;5086602;28;20263;-58
2023/09/04 04:06:29;;;;;;;3.97;3.05;;;;;;;16.26;73.30;101344.47;5088327;28;20224;-59
2023/09/04 04:08:57;;;;;;;4.65;3.40;;;;;;;16.27;73.08;101348.78;5089688;28;20204;-62
2023/09/04 04:11:27;;;;;;;3.53;3.00;;;;;;;16.33;72.84;101351.31;5089734;28;20227;-60
2023/09/04 04:13:55;;;;;;;5.97;3.60;;;;;;;16.40;72.88;101358.16;5088346;28;20247;-57
2023/09/04 04:16:22;;;;;;;4.97;2.78;;;;;;;16.40;72.28;101347.75;5083441;28;20547;-61
2023/09/04 04:18:50;;;;;;;3.83;2.97;;;;;;;16.37;72.69;101347.78;5088782;28;20236;-60
2023/09/04 04:21:18;;;;;;;4.70;3.30;;;;;;;16.39;72.46;101350.38;5090586;28;20492;-61
2023/09/04 04:23:46;;;;;;;4.55;3.50;;;;;;;16.43;72.43;101360.72;5084251;28;20196;-59
2023/09/04 04:26:14;;;;;;;3.80;2.88;;;;;;;16.47;72.04;101356.31;5085039;28;20679;-59
2023/09/04 04:28:43;;;;;;;7.90;3.33;;;;;;;16.48;71.72;101355.44;5089871;28;20661;-60
2023/09/04 04:31:11;;;;;;;3.45;2.90;;;;;;;16.47;71.65;101348.53;5081546;28;20322;-58
2023/09/04 04:33:39;;;;;;;6.20;2.85;;;;;;;16.46;71.54;101340.72;5090261;28;20207;-62
2023/09/04 04:36:07;;;;;;;4.28;3.08;;;;;;;16.45;71.29;101344.22;5083387;28;20678;-59
2023/09/04 04:38:35;;;;;;;3.97;2.78;;;;;;;16.44;71.97;101340.75;5086615;28;20207;-62
2023/09/04 04:41:04;;;;;;;3.28;2.50;;;;;;;16.50;71.87;101338.06;5088320;28;20713;-61
2023/09/04 04:43:32;;;;;;;6.78;3.08;;;;;;;16.62;71.57;101347.44;5081689;28;20640;-59
2023/09/04 04:46:01;;;;;;;3.63;3.20;;;;;;;16.71;70.84;101342.06;5089241;28;20581;-60
2023/09/04 04:48:29;;;;;;;3.85;2.85;;;;;;;16.79;70.55;101349.78;5087232;28;20655;-58
2023/09/04 04:50:57;;;;;;;6.07;3.47;;;;;;;16.88;70.18;101345.28;5091031;28;20265;-57
2023/09/04 04:53:25;;;;;;;4.47;3.10;;;;;;;16.95;69.32;101347.78;5085173;28;20249;-58
2023/09/04 04:55:53;;;;;;;6.40;3.15;;;;;;;17.03;68.96;101351.97;5088436;28;20193;-57
2023/09/04 04:58:21;;;;;;;8.80;3.45;;;;;;;17.10;68.18;101355.34;5083244;28;20216;-58
2023/09/04 05:00:49;;;;;;;5.03;3.10;;;;;;;17.13;68.03;101350.09;5089737;28;20209;-62
2023/09/04 05:03:19;;;;;;;4.45;2.85;;;;;;;17.18;67.67;101343.03;5082329;28;20240;-66
2023/09/04 05:05:47;;;;;;;5.70;2.53;;;;;;;17.20;67.30;101351.69;5084638;28;20398;-59
2023/09/04 05:08:15;;;;;;;3.78;2.55;;;;;;;17.24;67.30;101358.56;5090585;28;20724;-57
2023/09/04 05:10:43;;;;;;;2.92;2.60;;;;;;;17.28;66.99;101361.97;5082676;28;20219;-59
2023/09/04 05:13:11;;;;;;;4.88;2.75;;;;;;;17.42;67.13;101353.91;5084602;28;20205;-62
2023/09/04 05:15:39;;;;;;;6.18;2.70;;;;;;;17.58;66.43;101352.72;5082932;28;20196;-60
2023/09/04 05:18:06;;;;;;;4.15;2.70;;;;;;;17.72;65.85;101345.47;5085313;28;20564;-59
2023/09/04 05:20:38;;;;;;;4.68;2.85;;;;;;;17.83;64.63;101342.69;5085630;28;20228;-61
2023/09/04 05:23:06;;;;;;;6.80;2.40;;;;;;;17.84;64.34;101349.59;5091707;28;20197;-60
2023/09/04 05:25:34;;;;;;;4.80;2.42;;;;;;;17.89;64.22;101346.91;5086044;28;20246;-59
2023/09/04 05:28:02;;;;;;;4.00;2.65;;;;;;;17.93;63.83;101352.03;5092004;28;20203;-58
2023/09/04 05:30:33;;;;;;;5.10;2.47;;;;;;;18.00;63.07;101360.56;5092216;28;20200;-60
2023/09/04 05:33:01;;;;;;;4.65;3.03;;;;;;;17.95;62.64;101357.22;5087476;28;20197;-63
2023/09/04 05:35:29;;;;;;;3.90;2.22;;;;;;;17.90;62.84;101364.28;5078559;28;20197;-58
2023/09/04 05:37:59;;;;;;;2.75;2.10;;;;;;;17.92;62.28;101376.38;5084586;28;20255;-58
2023/09/04 05:40:27;;;;;;;5.05;2.50;;;;;;;17.92;62.67;101376.38;5085960;28;20270;-58
2023/09/04 05:42:56;;;;;;;3.28;2.20;;;;;;;18.02;62.58;101377.91;5085018;28;20228;-63
2023/09/04 05:45:24;;;;;;;4.35;2.25;;;;;;;18.18;62.29;101375.81;5086759;28;20652;-60
2023/09/04 05:47:52;;;;;;;6.80;2.30;;;;;;;18.41;61.43;101379.66;5087043;28;20200;-60
2023/09/04 05:50:20;;;;;;;4.38;2.10;;;;;;;18.59;60.61;101389.69;5084453;28;20667;-59
2023/09/04 05:52:48;;;;;;;3.47;2.28;;;;;;;18.77;59.81;101384.06;5086680;28;20230;-60
2023/09/04 05:55:17;;;;;;;8.07;2.45;;;;;;;18.87;59.47;101389.94;5077484;28;20192;-62
2023/09/04 05:57:45;;;;;;;5.85;2.63;;;;;;;18.95;59.02;101389.75;5076936;28;20204;-62
2023/09/04 06:00:14;;;;;;;3.38;1.92;;;;;;;19.00;58.52;101395.69;5076672;28;20203;-59
2023/09/04 06:02:42;;;;;;;4.10;2.35;;;;;;;18.97;58.78;101391.44;5086466;28;20200;-61
2023/09/04 06:05:10;;;;;;;4.18;1.95;;;;;;;18.89;58.13;101396.00;5086636;28;20254;-65
2023/09/04 06:07:38;;;;;;;4.80;2.17;;;;;;;18.73;58.65;101410.28;5083990;28;20395;-57
2023/09/04 06:10:06;;;;;;;6.60;2.28;;;;;;;18.63;59.00;101407.03;5085352;28;20218;-58
2023/09/04 06:12:36;;;;;;;3.38;2.40;;;;;;;18.61;59.23;101421.00;5084256;28;20232;-58
2023/09/04 06:15:04;;;;;;;11.57;8.70;;;;;;;18.47;59.60;101414.31;5087510;28;20261;-60
2023/09/04 06:17:32;;;;;;;3.40;2.45;;;;;;;18.42;60.12;101405.75;5078974;28;20292;-62
2023/09/04 06:20:00;;;;;;;6.88;2.20;;;;;;;18.42;60.17;101416.19;5089498;28;20208;-58
2023/09/04 06:22:28;;;;;;;5.32;2.10;;;;;;;18.38;60.39;101413.69;5089979;28;20208;-59
2023/09/04 06:24:56;;;;;;;7.35;2.45;;;;;;;18.35;60.32;101414.59;5090028;28;20208;-59
2023/09/04 06:27:24;;;;;;;7.65;2.72;;;;;;;18.35;60.76;101417.22;5080543;28;20213;-59
2023/09/04 06:29:53;;;;;;;4.78;1.98;;;;;;;18.38;61.06;101424.97;5089013;28;20201;-58
2023/09/04 06:32:21;;;;;;;5.85;2.58;;;;;;;18.43;61.03;101417.91;5090947;28;20584;-59
2023/09/04 06:34:49;;;;;;;6.35;2.42;;;;;;;18.49;60.46;101428.22;5089349;28;20211;-59
2023/09/04 06:37:17;;;;;;;3.22;2.25;;;;;;;18.55;60.48;101445.47;5084671;28;20628;-59
2023/09/04 06:39:45;;;;;;;7.53;2.30;;;;;;;18.59;60.16;101441.91;5082586;28;20660;-60
2023/09/04 06:42:13;;;;;;;9.02;2.28;;;;;;;18.62;60.54;101452.28;5089406;28;20736;-60
2023/09/04 06:44:41;;;;;;;7.75;2.63;;;;;;;18.71;60.15;101459.94;5092672;28;20252;-59
2023/09/04 06:47:10;;;;;;;3.58;2.00;;;;;;;18.82;60.10;101457.94;5093368;28;20564;-60
2023/09/04 06:49:38;;;;;;;2.90;1.90;;;;;;;19.01;59.67;101457.53;5086325;28;20226;-61
2023/09/04 06:52:06;;;;;;;6.40;2.55;;;;;;;19.19;59.16;101454.47;5084912;28;20204;-61
2023/09/04 06:54:35;;;;;;;6.82;2.55;;;;;;;19.27;58.47;101459.50;5087757;28;20232;-61
2023/09/04 06:57:03;;;;;;;5.28;1.98;;;;;;;19.21;57.96;101451.78;5092572;28;20292;-60
2023/09/04 06:59:31;;;;;;;4.28;2.03;;;;;;;19.12;58.33;101457.25;5090461;28;20216;-59
2023/09/04 07:01:59;;;;;;;7.28;2.40;;;;;;;19.04;58.46;101465.28;5080669;28;20754;-60
2023/09/04 07:04:28;;;;;;;6.18;2.15;;;;;;;18.98;58.32;101465.44;5084181;28;20211;-58
2023/09/04 07:06:56;;;;;;;3.65;2.10;;;;;;;19.03;58.85;101460.94;5086332;28;20223;-61
2023/09/04 07:09:24;;;;;;;7.50;1.98;;;;;;;19.22;58.90;101456.13;5087034;28;20663;-61
2023/09/04 07:11:52;;;;;;;4.63;2.25;;;;;;;19.44;57.82;101456.44;5085998;28;20228;-58
2023/09/04 07:14:20;;;;;;;3.33;2.22;;;;;;;19.73;57.44;101455.69;5088747;28;20211;-60
2023/09/04 07:16:47;;;;;;;3.63;1.88;;;;;;;20.04;56.26;101458.34;5087247;28;20193;-58
2023/09/04 07:19:36;;;;;;;6.68;2.00;;;;;;;20.56;54.67;101454.22;5085166;28;20204;-61
2023/09/04 07:22:04;;;;;;;5.35;2.05;;;;;;;21.26;53.70;101447.63;5081688;28;20240;-59
2023/09/04 07:24:32;;;;;;;4.53;1.92;;;;;;;23.29;51.05;101439.16;5083962;28;20219;-59
2023/09/04 07:27:00;;;;;;;4.20;2.45;;;;;;;25.21;43.41;101436.47;5083773;28;20221;-58
2023/09/04 07:29:28;;;;;;;3.17;1.58;;;;;;;25.86;40.40;101434.00;5083487;28;20209;-60
2023/09/04 07:31:56;;;;;;;3.25;1.77;;;;;;;25.77;40.36;101446.75;5090171;28;20224;-61
2023/09/04 07:34:24;;;;;;;4.38;2.00;;;;;;;25.36;40.42;101446.22;5094641;28;20240;-61
2023/09/04 07:36:54;;;;;;;4.45;1.73;;;;;;;25.04;41.18;101451.31;5079905;28;20228;-60
2023/09/04 07:39:22;;;;;;;6.10;1.50;;;;;;;25.03;41.13;101444.31;5086374;28;20240;-60
2023/09/04 07:41:50;;;;;;;4.60;1.60;;;;;;;24.68;41.13;101453.97;5090628;28;20708;-62
2023/09/04 07:44:17;;;;;;;4.38;1.85;;;;;;;24.10;42.17;101461.94;5085235;28;20714;-59
2023/09/04 07:46:45;;;;;;;5.78;1.75;;;;;;;23.45;43.52;101476.16;5085376;28;20568;-59
2023/09/04 07:49:14;;;;;;;4.90;2.05;;;;;;;22.82;45.25;101474.31;5088168;28;20242;-61
2023/09/04 07:51:42;;;;;;;6.28;1.75;;;;;;;22.47;46.68;101473.06;5087740;28;20201;-58
2023/09/04 07:54:12;;;;;;;3.20;1.80;;;;;;;22.20;47.21;101464.44;5089438;28;20667;-60
2023/09/04 07:56:40;;;;;;;4.13;2.03;;;;;;;22.00;46.98;101467.78;5085331;28;20213;-58
2023/09/04 07:59:10;;;;;;;4.03;1.67;;;;;;;21.96;47.29;101455.69;5086513;28;20960;-59
2023/09/04 08:01:38;;;;;;;4.75;1.98;;;;;;;22.05;47.78;101452.72;5090078;28;20201;-63
2023/09/04 08:04:06;;;;;;;3.22;1.80;;;;;;;22.11;47.32;101449.03;5090440;28;20853;-66
2023/09/04 08:06:35;;;;;;;5.38;2.10;;;;;;;22.05;47.29;101450.09;5095638;28;20634;-58
2023/09/04 08:09:03;;;;;;;8.27;2.45;;;;;;;21.73;47.89;101460.94;5093239;28;20223;-61
2023/09/04 08:11:32;;;;;;;2.67;1.80;;;;;;;21.43;49.00;101456.69;5091837;28;20259;-61
2023/09/04 08:14:00;;;;;;;5.90;2.25;;;;;;;21.25;49.90;101454.66;5085160;28;20558;-60
2023/09/04 08:16:28;;;;;;;4.05;1.95;;;;;;;21.09;50.75;101463.91;5088467;28;20205;-60
2023/09/04 08:18:56;;;;;;;4.10;1.90;;;;;;;20.86;51.54;101456.78;5089194;28;20200;-62
2023/09/04 08:21:24;;;;;;;4.07;1.90;;;;;;;20.74;52.23;101466.75;5087591;28;20250;-61
2023/09/04 08:23:52;;;;;;;5.03;2.17;;;;;;;20.70;51.85;101462.53;5084413;28;20197;-61
2023/09/04 08:26:20;;;;;;;4.13;2.03;;;;;;;20.67;51.81;101470.47;5086620;28;20205;-63
2023/09/04 08:28:49;;;;;;;3.03;1.55;;;;;;;20.58;52.04;101468.13;5079177;28;20232;-67
2023/09/04 08:31:17;;;;;;;3.13;1.63;;;;;;;20.55;52.17;101470.84;5081908;28;20205;-62
2023/09/04 08:33:45;;;;;;;2.83;1.80;;;;;;;20.45;52.99;101478.09;5080721;28;20229;-58
2023/09/04 08:36:13;;;;;;;4.15;1.77;;;;;;;20.39;53.13;101486.09;5083074;28;20200;-59
2023/09/04 08:38:41;;;;;;;3.72;1.85;;;;;;;20.38;53.08;101483.53;5088524;28;20215;-60
2023/09/04 08:41:13;;;;;;;5.35;2.03;;;;;;;20.40;53.35;101490.47;5085009;28;20590;-59
2023/09/04 08:43:43;;;;;;;2.65;1.65;;;;;;;20.37;53.01;101487.06;5090163;28;20774;-60
2023/09/04 08:46:15;;;;;;;3.83;2.00;;;;;;;20.28;53.39;101483.81;5089883;28;20204;-59
2023/09/04 08:48:45;;;;;;;3.97;2.10;;;;;;;20.22;53.50;101480.53;5086661;28;20671;-60
2023/09/04 08:51:14;;;;;;;3.22;2.10;;;;;;;20.27;53.65;101484.72;5084764;28;20635;-59
2023/09/04 08:53:42;;;;;;;3.97;1.63;;;;;;;20.46;53.47;101492.88;5085494;28;20204;-60
2023/09/04 08:56:10;;;;;;;5.82;2.38;;;;;;;20.63;52.38;101492.41;5087127;28;20229;-59
2023/09/04 08:58:43;;;;;;;8.52;2.45;;;;;;;20.87;51.34;101482.09;5090591;28;20196;-59
2023/09/04 09:01:13;;;;;;;2.28;1.67;;;;;;;21.12;50.70;101480.41;5085238;28;20295;-60
2023/09/04 09:03:43;;;;;;;4.18;1.92;;;;;;;21.43;50.10;101482.06;5085577;28;20643;-59
2023/09/04 09:06:14;;;;;;;10.73;2.00;;;;;;;21.71;49.08;101488.03;5080851;28;20692;-60
2023/09/04 09:08:45;;;;;;;5.20;1.80;;;;;;;22.08;48.66;101491.97;5083993;28;22205;-63
2023/09/04 09:11:15;;;;;;;3.90;1.92;;;;;;;22.32;48.08;101484.16;5084688;28;20201;-60
2023/09/04 09:13:44;;;;;;;4.43;2.00;;;;;;;22.61;46.92;101489.16;5082276;28;20262;-62
2023/09/04 09:16:18;;;;;;;10.50;2.10;;;;;;;22.81;45.74;101487.53;5087669;28;20192;-63
2023/09/04 09:18:47;;;;;;;4.70;2.03;;;;;;;22.98;46.01;101485.13;5086823;28;20809;-58
2023/09/04 09:21:24;;;;;;;4.75;1.90;;;;;;;23.24;45.43;101483.19;5082639;28;20215;-65
2023/09/04 09:24:17;;;;;;;4.13;1.90;;;;;;;23.57;44.32;101479.16;5085543;28;20605;-61
2023/09/04 09:26:47;;;;;;;4.18;1.67;;;;;;;23.75;43.62;101477.53;5084731;28;20206;-61
2023/09/04 09:29:16;;;;;;;6.30;2.15;;;;;;;23.91;43.84;101475.06;5083604;28;20205;-59
2023/09/04 09:31:46;;;;;;;2.92;1.90;;;;;;;24.10;43.01;101465.41;5083436;28;20204;-61
2023/09/04 09:34:16;;;;;;;5.30;2.20;;;;;;;24.27;42.83;101467.28;5082978;28;20320;-60
2023/09/04 09:36:44;;;;;;;4.55;2.40;;;;;;;24.47;42.49;101474.28;5090064;28;20200;-61
2023/09/04 09:39:12;;;;;;;3.40;2.03;;;;;;;24.69;42.00;101476.75;5090550;28;20208;-61
2023/09/04 09:41:40;;;;;;;7.57;2.92;;;;;;;24.81;41.97;101475.31;5086905;28;20201;-61
2023/09/04 09:44:08;;;;;;;5.32;2.28;;;;;;;25.05;41.70;101473.28;5104311;28;20227;-60
2023/09/04 09:46:37;;;;;;;5.25;2.55;;;;;;;25.28;40.60;101470.38;5094339;28;20212;-60
2023/09/04 09:49:08;;;;;;;4.25;2.20;;;;;;;25.22;40.32;101480.38;5093889;28;20231;-61
2023/09/04 09:51:37;;;;;;;8.25;2.45;;;;;;;25.05;40.44;101478.56;5092138;28;20567;-60
2023/09/04 09:54:06;;;;;;;3.70;1.80;;;;;;;24.89;40.44;101486.38;5090857;28;20196;-60
2023/09/04 09:56:35;;;;;;;5.28;2.30;;;;;;;24.77;40.59;101485.16;5089198;28;20211;-60
2023/09/04 09:59:04;;;;;;;4.35;2.30;;;;;;;24.70;40.87;101477.63;5085709;28;20278;-64
2023/09/04 10:01:32;;;;;;;2.33;1.65;;;;;;;24.73;40.09;101477.47;5092016;28;20647;-60
2023/09/04 10:04:01;;;;;;;4.57;2.03;;;;;;;24.74;39.72;101468.63;5078842;28;20663;-61
2023/09/04 10:06:34;;;;;;;3.53;1.45;;;;;;;25.06;40.18;101472.34;5091775;28;20701;-66
2023/09/04 10:09:07;;;;;;;3.08;1.70;;;;;;;25.70;39.17;101466.47;5091290;28;20211;-62
2023/09/04 10:11:41;;;;;;;2.90;1.85;;;;;;;26.51;37.72;101471.84;5090521;28;20232;-62
2023/09/04 10:14:15;;;;;;;3.70;2.10;;;;;;;27.36;36.82;101468.78;5090651;28;20204;-64
2023/09/04 10:16:50;;;;;;;2.97;2.22;;;;;;;27.80;35.19;101459.09;5089955;28;20585;-61
2023/09/04 10:19:19;;;;;;;6.00;2.03;;;;;;;27.76;34.58;101461.06;5078399;28;20279;-63
2023/09/04 10:21:55;;;;;;;4.50;2.47;;;;;;;27.19;35.24;101466.25;5082624;28;20231;-60
2023/09/04 10:24:31;;;;;;;4.40;2.58;;;;;;;26.61;36.88;101453.69;5081900;28;20205;-59
2023/09/04 10:27:02;;;;;;;4.50;2.10;;;;;;;26.18;37.47;101454.25;5083754;28;20192;-59
2023/09/04 10:29:32;;;;;;;5.13;2.20;;;;;;;26.53;37.23;101448.00;5089788;28;20212;-62
2023/09/04 10:32:01;;;;;;;3.17;2.00;;;;;;;27.58;35.82;101455.09;5088531;28;20548;-60
2023/09/04 10:34:31;;;;;;;3.78;1.80;;;;;;;27.64;33.96;101461.81;5091116;28;20204;-63
2023/09/04 10:37:00;;;;;;;3.85;1.73;;;;;;;27.10;34.46;101464.09;5090689;28;20234;-64
2023/09/04 10:39:28;;;;;;;5.22;1.67;;;;;;;26.25;35.96;101460.91;5091170;28;20196;-60
2023/09/04 10:41:58;;;;;;;5.82;1.95;;;;;;;25.59;38.24;101465.31;5088775;28;20713;-61
2023/09/04 10:44:45;;;;;;;3.97;1.77;;;;;;;25.88;38.23;101466.47;5087521;28;20244;-65
2023/09/04 10:47:13;;;;;;;2.55;1.75;;;;;;;26.67;36.38;101469.22;5089757;28;20203;-59
2023/09/04 10:49:42;;;;;;;2.97;1.50;;;;;;;27.39;34.05;101457.97;5098130;28;20224;-61
2023/09/04 10:52:13;;;;;;;6.20;1.55;;;;;;;27.93;32.40;101457.41;5101022;28;20231;-60
2023/09/04 10:54:42;;;;;;;2.60;1.50;;;;;;;28.11;31.61;101461.56;5080316;28;20226;-61
2023/09/04 10:57:12;;;;;;;2.70;1.60;;;;;;;28.17;31.45;101452.38;5093693;28;20318;-61
2023/09/04 11:00:00;;;;;;;2.17;1.65;;;;;;;27.68;31.69;101447.44;5100600;28;20261;-63
2023/09/04 11:02:30;;;;;;;2.45;1.52;;;;;;;27.01;33.08;101457.56;5086686;28;20197;-61
2023/09/04 11:04:59;;;;;;;3.20;1.80;;;;;;;26.09;34.44;101445.97;5099054;28;20221;-63
2023/09/04 11:07:34;;;;;;;2.70;1.65;;;;;;;25.18;37.65;101444.53;5090815;28;20205;-61
2023/09/04 11:10:28;;;;;;;2.97;1.42;;;;;;;25.13;38.38;101450.03;5088268;28;20215;-60
2023/09/04 11:12:57;;;;;;;2.75;1.85;;;;;;;25.46;38.30;101460.66;5094409;28;20208;-62
2023/09/04 11:15:28;;;;;;;3.60;1.60;;;;;;;25.98;37.40;101460.59;5089069;28;20213;-58
2023/09/04 11:17:56;;;;;;;2.90;1.65;;;;;;;26.64;35.35;101453.53;5087409;28;20204;-61
2023/09/04 11:20:26;;;;;;;4.55;1.60;;;;;;;27.12;33.84;101454.31;5093416;28;20287;-60
2023/09/04 11:22:57;;;;;;;7.25;2.13;;;;;;;27.15;32.18;101451.50;5079450;28;20205;-60
2023/09/04 11:25:25;;;;;;;2.80;1.48;;;;;;;26.73;33.05;101447.69;5081872;28;20703;-62
2023/09/04 11:27:53;;;;;;;3.33;1.85;;;;;;;26.12;33.90;101448.47;5081837;28;20624;-64
2023/09/04 11:30:22;;;;;;;3.65;1.90;;;;;;;25.23;34.94;101446.00;5089122;28;20273;-59
2023/09/04 11:32:51;;;;;;;3.10;1.73;;;;;;;24.54;36.57;101454.63;5085519;28;20209;-61